sensor_id;sensor_type;location;lat;lon;timestamp;pressure;altitude;pressure_sealevel;temperature;humidity
64298;BME280;50639;53.270;7.956;2023-02-21T00:01:32;100907.84;;;10.23;100.00
64298;BME280;50639;53.270;7.956;2023-02-21T00:04:16;100964.88;;;10.25;100.00
64298;BME280;50639;53.270;7.956;2023-02-21T00:07:00;100964.88;;;10.25;100.00
64298;BME280;50639;53.270;7.956;2023-02-21T00:09:44;100932.25;;;10.21;100.00
64298;BME280;50639;53.270;7.956;2023-02-21T00:12:28;100999.81;;;10.25;100.00
64298;BME280;50639;53.270;7.956;2023-02-21T00:15:12;101022.13;;;10.25;100.00
64298;BME280;50639;53.270;7.956;2023-02-21T00:17:56;101071.72;;;10.29;100.00
64298;BME280;50639;53.270;7.956;2023-02-21T00:20:40;100991.75;;;10.25;100.00
64298;BME280;50639;53.270;7.956;2023-02-21T00:23:25;100976.88;;;10.22;100.00
64298;BME280;50639;53.270;7.956;2023-02-21T00:26:09;101014.50;;;10.22;100.00
64298;BME280;50639;53.270;7.956;2023-02-21T00:28:53;100921.94;;;10.18;100.00
64298;BME280;50639;53.270;7.956;2023-02-21T00:31:37;100975.66;;;10.18;100.00
64298;BME280;50639;53.270;7.956;2023-02-21T00:34:21;101003.16;;;10.20;100.00
64298;BME280;50639;53.270;7.956;2023-02-21T00:37:05;100970.09;;;10.20;100.00
64298;BME280;50639;53.270;7.956;2023-02-21T00:39:49;100951.50;;;10.18;100.00
64298;BME280;50639;53.270;7.956;2023-02-21T00:42:33;101005.47;;;10.17;100.00
64298;BME280;50639;53.270;7.956;2023-02-21T00:45:16;100981.72;;;10.14;100.00
64298;BME280;50639;53.270;7.956;2023-02-21T00:48:01;100956.31;;;10.09;100.00
64298;BME280;50639;53.270;7.956;2023-02-21T00:50:45;100957.34;;;10.08;100.00
64298;BME280;50639;53.270;7.956;2023-02-21T00:53:29;100934.44;;;10.06;100.00
64298;BME280;50639;53.270;7.956;2023-02-21T00:56:13;101006.75;;;10.07;100.00
64298;BME280;50639;53.270;7.956;2023-02-21T00:58:57;101031.13;;;10.13;100.00
64298;BME280;50639;53.270;7.956;2023-02-21T01:01:41;101077.41;;;10.15;100.00
64298;BME280;50639;53.270;7.956;2023-02-21T01:04:25;101038.56;;;10.11;100.00
64298;BME280;50639;53.270;7.956;2023-02-21T01:07:09;100965.25;;;10.03;100.00
64298;BME280;50639;53.270;7.956;2023-02-21T01:09:53;101071.84;;;10.09;100.00
64298;BME280;50639;53.270;7.956;2023-02-21T01:12:37;101046.00;;;10.08;100.00
64298;BME280;50639;53.270;7.956;2023-02-21T01:15:23;101039.41;;;10.11;100.00
64298;BME280;50639;53.270;7.956;2023-02-21T01:18:07;101002.81;;;10.10;100.00
64298;BME280;50639;53.270;7.956;2023-02-21T01:20:51;101038.16;;;10.14;100.00
64298;BME280;50639;53.270;7.956;2023-02-21T01:23:35;101061.28;;;10.15;100.00
64298;BME280;50639;53.270;7.956;2023-02-21T01:26:19;101026.56;;;10.13;100.00
64298;BME280;50639;53.270;7.956;2023-02-21T01:29:03;101046.81;;;10.16;100.00
64298;BME280;50639;53.270;7.956;2023-02-21T01:31:49;101027.41;;;10.14;100.00
64298;BME280;50639;53.270;7.956;2023-02-21T01:34:33;101027.41;;;10.14;100.00
64298;BME280;50639;53.270;7.956;2023-02-21T01:37:17;101094.13;;;10.17;100.00
64298;BME280;50639;53.270;7.956;2023-02-21T01:40:00;101098.47;;;10.18;100.00
64298;BME280;50639;53.270;7.956;2023-02-21T01:42:44;101050.47;;;10.21;100.00
64298;BME280;50639;53.270;7.956;2023-02-21T01:48:19;100971.97;;;10.19;100.00
64298;BME280;50639;53.270;7.956;2023-02-21T01:51:06;101013.69;;;10.22;100.00
64298;BME280;50639;53.270;7.956;2023-02-21T01:53:52;101035.19;;;10.22;100.00
64298;BME280;50639;53.270;7.956;2023-02-21T01:56:37;101035.19;;;10.22;100.00
64298;BME280;50639;53.270;7.956;2023-02-21T01:59:22;100947.19;;;10.17;100.00
64298;BME280;50639;53.270;7.956;2023-02-21T02:04:54;101026.53;;;10.20;100.00
64298;BME280;50639;53.270;7.956;2023-02-21T02:07:39;101003.81;;;10.16;100.00
64298;BME280;50639;53.270;7.956;2023-02-21T02:10:23;101002.16;;;10.15;100.00
64298;BME280;50639;53.270;7.956;2023-02-21T02:13:44;101040.56;;;10.22;100.00
64298;BME280;50639;53.270;7.956;2023-02-21T02:16:28;100968.06;;;10.15;100.00
64298;BME280;50639;53.270;7.956;2023-02-21T02:35:48;100936.38;;;10.24;100.00
64298;BME280;50639;53.270;7.956;2023-02-21T02:38:30;101026.84;;;10.30;100.00
64298;BME280;50639;53.270;7.956;2023-02-21T02:41:20;100984.28;;;10.27;100.00
64298;BME280;50639;53.270;7.956;2023-02-21T02:43:56;100995.63;;;10.29;100.00
64298;BME280;50639;53.270;7.956;2023-02-21T02:46:26;100975.19;;;10.28;100.00
64298;BME280;50639;53.270;7.956;2023-02-21T02:48:57;100966.97;;;10.23;100.00
64298;BME280;50639;53.270;7.956;2023-02-21T02:51:25;100981.28;;;10.17;100.00
64298;BME280;50639;53.270;7.956;2023-02-21T02:53:54;101002.34;;;10.20;100.00
64298;BME280;50639;53.270;7.956;2023-02-21T02:56:20;101012.50;;;10.18;100.00
64298;BME280;50639;53.270;7.956;2023-02-21T02:59:00;101012.50;;;10.18;100.00
64298;BME280;50639;53.270;7.956;2023-02-21T03:04:48;101066.22;;;10.18;100.00
64298;BME280;50639;53.270;7.956;2023-02-21T03:07:44;101018.88;;;10.17;100.00
64298;BME280;50639;53.270;7.956;2023-02-21T03:10:30;101045.94;;;10.22;100.00
64298;BME280;50639;53.270;7.956;2023-02-21T03:16:44;101071.16;;;10.21;100.00
64298;BME280;50639;53.270;7.956;2023-02-21T03:18:48;101039.78;;;10.15;100.00
64298;BME280;50639;53.270;7.956;2023-02-21T03:21:20;101074.91;;;10.20;100.00
64298;BME280;50639;53.270;7.956;2023-02-21T03:23:49;101105.06;;;10.22;100.00
64298;BME280;50639;53.270;7.956;2023-02-21T03:26:17;101210.63;;;10.29;100.00
64298;BME280;50639;53.270;7.956;2023-02-21T03:28:47;101102.56;;;10.20;100.00
64298;BME280;50639;53.270;7.956;2023-02-21T03:31:15;101156.91;;;10.22;100.00
64298;BME280;50639;53.270;7.956;2023-02-21T03:33:48;101152.13;;;10.24;100.00
64298;BME280;50639;53.270;7.956;2023-02-21T03:36:13;101176.75;;;10.28;100.00
64298;BME280;50639;53.270;7.956;2023-02-21T03:38:39;101181.28;;;10.27;100.00
64298;BME280;50639;53.270;7.956;2023-02-21T03:41:07;101168.69;;;10.28;100.00
64298;BME280;50639;53.270;7.956;2023-02-21T03:43:36;101110.84;;;10.19;100.00
64298;BME280;50639;53.270;7.956;2023-02-21T03:46:02;101191.66;;;10.24;100.00
64298;BME280;50639;53.270;7.956;2023-02-21T03:48:29;101186.47;;;10.22;100.00
64298;BME280;50639;53.270;7.956;2023-02-21T03:50:55;101202.78;;;10.27;100.00
64298;BME280;50639;53.270;7.956;2023-02-21T03:53:25;101156.25;;;10.27;100.00
64298;BME280;50639;53.270;7.956;2023-02-21T03:55:51;101200.31;;;10.26;100.00
64298;BME280;50639;53.270;7.956;2023-02-21T03:58:23;101188.78;;;10.19;100.00
64298;BME280;50639;53.270;7.956;2023-02-21T04:00:48;101196.84;;;10.19;100.00
64298;BME280;50639;53.270;7.956;2023-02-21T04:03:16;101204.66;;;10.20;100.00
64298;BME280;50639;53.270;7.956;2023-02-21T04:05:53;101223.91;;;10.24;100.00
64298;BME280;50639;53.270;7.956;2023-02-21T04:08:19;101219.31;;;10.24;100.00
64298;BME280;50639;53.270;7.956;2023-02-21T04:10:45;101223.06;;;10.23;100.00
64298;BME280;50639;53.270;7.956;2023-02-21T04:13:11;101164.16;;;10.22;100.00
64298;BME280;50639;53.270;7.956;2023-02-21T04:15:44;101210.00;;;10.27;100.00
64298;BME280;50639;53.270;7.956;2023-02-21T04:18:09;101203.44;;;10.23;100.00
64298;BME280;50639;53.270;7.956;2023-02-21T04:20:37;101194.75;;;10.21;100.00
64298;BME280;50639;53.270;7.956;2023-02-21T04:23:04;101172.03;;;10.17;100.00
64298;BME280;50639;53.270;7.956;2023-02-21T04:25:31;101143.94;;;10.19;100.00
64298;BME280;50639;53.270;7.956;2023-02-21T04:28:02;101155.91;;;10.17;100.00
64298;BME280;50639;53.270;7.956;2023-02-21T04:30:27;101246.41;;;10.23;100.00
64298;BME280;50639;53.270;7.956;2023-02-21T04:32:53;101205.13;;;10.17;100.00
64298;BME280;50639;53.270;7.956;2023-02-21T04:35:19;101137.94;;;10.17;100.00
64298;BME280;50639;53.270;7.956;2023-02-21T04:37:45;101193.13;;;10.20;100.00
64298;BME280;50639;53.270;7.956;2023-02-21T04:40:12;101172.66;;;10.19;100.00
64298;BME280;50639;53.270;7.956;2023-02-21T04:42:37;101267.91;;;10.23;100.00
64298;BME280;50639;53.270;7.956;2023-02-21T04:45:03;101206.97;;;10.17;100.00
64298;BME280;50639;53.270;7.956;2023-02-21T04:47:29;101193.97;;;10.14;100.00
64298;BME280;50639;53.270;7.956;2023-02-21T04:49:54;101256.81;;;10.13;100.00
64298;BME280;50639;53.270;7.956;2023-02-21T04:52:20;101267.13;;;10.16;100.00
64298;BME280;50639;53.270;7.956;2023-02-21T04:54:46;101225.84;;;10.03;100.00
64298;BME280;50639;53.270;7.956;2023-02-21T04:57:13;101230.00;;;9.99;100.00
64298;BME280;50639;53.270;7.956;2023-02-21T04:59:39;101369.84;;;10.04;100.00
64298;BME280;50639;53.270;7.956;2023-02-21T05:02:06;101266.16;;;9.97;100.00
64298;BME280;50639;53.270;7.956;2023-02-21T05:04:34;101323.38;;;9.97;100.00
64298;BME280;50639;53.270;7.956;2023-02-21T05:07:00;101309.31;;;10.02;100.00
64298;BME280;50639;53.270;7.956;2023-02-21T05:09:25;101333.47;;;10.02;100.00
64298;BME280;50639;53.270;7.956;2023-02-21T05:14:20;101212.19;;;9.98;100.00
64298;BME280;50639;53.270;7.956;2023-02-21T05:16:46;101216.75;;;9.98;100.00
64298;BME280;50639;53.270;7.956;2023-02-21T05:19:11;101288.25;;;9.99;100.00
64298;BME280;50639;53.270;7.956;2023-02-21T05:21:40;101261.78;;;10.02;100.00
64298;BME280;50639;53.270;7.956;2023-02-21T05:24:06;101232.00;;;10.04;100.00
64298;BME280;50639;53.270;7.956;2023-02-21T05:26:36;101203.50;;;10.03;100.00
64298;BME280;50639;53.270;7.956;2023-02-21T05:29:03;101165.06;;;10.02;100.00
64298;BME280;50639;53.270;7.956;2023-02-21T05:31:29;101187.78;;;10.06;100.00
64298;BME280;50639;53.270;7.956;2023-02-21T05:33:55;101242.75;;;10.04;100.00
64298;BME280;50639;53.270;7.956;2023-02-21T05:36:21;101236.34;;;10.05;100.00
64298;BME280;50639;53.270;7.956;2023-02-21T05:38:52;101155.16;;;10.03;100.00
64298;BME280;50639;53.270;7.956;2023-02-21T05:41:18;101139.88;;;10.03;100.00
64298;BME280;50639;53.270;7.956;2023-02-21T05:43:45;101072.38;;;9.93;100.00
64298;BME280;50639;53.270;7.956;2023-02-21T05:46:38;101186.56;;;10.02;100.00
64298;BME280;50639;53.270;7.956;2023-02-21T05:49:03;101199.34;;;10.07;100.00
64298;BME280;50639;53.270;7.956;2023-02-21T05:51:40;101108.44;;;10.04;100.00
64298;BME280;50639;53.270;7.956;2023-02-21T05:54:08;101131.22;;;10.01;100.00
64298;BME280;50639;53.270;7.956;2023-02-21T05:56:40;101152.03;;;10.06;100.00
64298;BME280;50639;53.270;7.956;2023-02-21T05:59:07;101125.84;;;10.01;100.00
64298;BME280;50639;53.270;7.956;2023-02-21T06:01:33;101044.47;;;9.94;100.00
64298;BME280;50639;53.270;7.956;2023-02-21T06:03:58;101131.63;;;9.98;100.00
64298;BME280;50639;53.270;7.956;2023-02-21T06:06:24;101159.28;;;10.05;100.00
64298;BME280;50639;53.270;7.956;2023-02-21T06:08:49;101139.41;;;10.06;100.00
64298;BME280;50639;53.270;7.956;2023-02-21T06:11:24;101085.09;;;10.04;100.00
64298;BME280;50639;53.270;7.956;2023-02-21T06:13:50;101121.66;;;10.05;100.00
64298;BME280;50639;53.270;7.956;2023-02-21T06:16:16;101166.31;;;10.00;100.00
64298;BME280;50639;53.270;7.956;2023-02-21T06:18:42;101181.38;;;10.07;100.00
64298;BME280;50639;53.270;7.956;2023-02-21T06:21:07;101146.88;;;10.04;100.00
64298;BME280;50639;53.270;7.956;2023-02-21T06:23:33;101136.72;;;10.06;100.00
64298;BME280;50639;53.270;7.956;2023-02-21T06:25:58;101122.09;;;10.02;100.00
64298;BME280;50639;53.270;7.956;2023-02-21T06:28:28;101081.19;;;10.00;100.00
64298;BME280;50639;53.270;7.956;2023-02-21T06:30:54;101172.09;;;10.03;100.00
64298;BME280;50639;53.270;7.956;2023-02-21T06:33:20;101105.97;;;10.02;100.00
64298;BME280;50639;53.270;7.956;2023-02-21T06:35:46;101172.53;;;10.00;100.00
64298;BME280;50639;53.270;7.956;2023-02-21T06:38:11;101192.53;;;10.04;100.00
64298;BME280;50639;53.270;7.956;2023-02-21T06:40:36;101196.91;;;10.05;100.00
64298;BME280;50639;53.270;7.956;2023-02-21T06:43:02;101243.59;;;10.04;100.00
64298;BME280;50639;53.270;7.956;2023-02-21T06:45:28;101311.78;;;10.10;100.00
64298;BME280;50639;53.270;7.956;2023-02-21T06:47:53;101339.25;;;10.12;100.00
64298;BME280;50639;53.270;7.956;2023-02-21T06:50:18;101377.94;;;10.11;100.00
64298;BME280;50639;53.270;7.956;2023-02-21T06:52:44;101499.03;;;10.16;100.00
64298;BME280;50639;53.270;7.956;2023-02-21T06:55:09;101477.94;;;10.06;100.00
64298;BME280;50639;53.270;7.956;2023-02-21T06:57:35;101637.34;;;10.14;100.00
64298;BME280;50639;53.270;7.956;2023-02-21T07:00:01;101669.97;;;10.11;100.00
64298;BME280;50639;53.270;7.956;2023-02-21T07:02:26;101735.88;;;10.06;100.00
64298;BME280;50639;53.270;7.956;2023-02-21T07:04:52;101820.81;;;10.01;100.00
64298;BME280;50639;53.270;7.956;2023-02-21T07:07:18;101912.38;;;10.06;100.00
64298;BME280;50639;53.270;7.956;2023-02-21T07:09:43;101971.94;;;10.09;100.00
64298;BME280;50639;53.270;7.956;2023-02-21T07:12:09;102020.31;;;10.09;100.00
64298;BME280;50639;53.270;7.956;2023-02-21T07:14:34;102083.91;;;10.02;100.00
64298;BME280;50639;53.270;7.956;2023-02-21T07:17:00;102114.09;;;10.04;100.00
64298;BME280;50639;53.270;7.956;2023-02-21T07:19:25;102171.66;;;10.10;100.00
64298;BME280;50639;53.270;7.956;2023-02-21T07:21:51;102202.06;;;10.11;100.00
64298;BME280;50639;53.270;7.956;2023-02-21T07:24:16;102278.31;;;10.09;100.00
64298;BME280;50639;53.270;7.956;2023-02-21T07:26:42;102265.72;;;10.10;100.00
64298;BME280;50639;53.270;7.956;2023-02-21T07:29:07;102298.59;;;10.12;100.00
64298;BME280;50639;53.270;7.956;2023-02-21T07:31:33;102337.78;;;10.06;100.00
64298;BME280;50639;53.270;7.956;2023-02-21T07:33:59;102318.63;;;10.09;100.00
64298;BME280;50639;53.270;7.956;2023-02-21T07:36:24;102350.38;;;10.06;100.00
64298;BME280;50639;53.270;7.956;2023-02-21T07:38:49;102359.94;;;10.08;100.00
64298;BME280;50639;53.270;7.956;2023-02-21T07:41:15;102415.38;;;10.09;100.00
64298;BME280;50639;53.270;7.956;2023-02-21T07:43:41;102447.56;;;10.18;100.00
64298;BME280;50639;53.270;7.956;2023-02-21T07:46:11;102326.53;;;10.11;100.00
64298;BME280;50639;53.270;7.956;2023-02-21T07:48:37;102465.53;;;10.17;100.00
64298;BME280;50639;53.270;7.956;2023-02-21T07:51:02;102502.50;;;10.15;100.00
64298;BME280;50639;53.270;7.956;2023-02-21T07:53:28;102512.88;;;10.18;100.00
64298;BME280;50639;53.270;7.956;2023-02-21T07:55:53;102557.47;;;10.13;100.00
64298;BME280;50639;53.270;7.956;2023-02-21T07:58:19;102678.72;;;10.18;100.00
64298;BME280;50639;53.270;7.956;2023-02-21T08:00:45;102805.38;;;10.23;100.00
64298;BME280;50639;53.270;7.956;2023-02-21T08:03:13;102794.66;;;10.15;100.00
64298;BME280;50639;53.270;7.956;2023-02-21T08:05:39;102887.72;;;10.24;100.00
64298;BME280;50639;53.270;7.956;2023-02-21T08:08:08;102865.88;;;10.19;100.00
64298;BME280;50639;53.270;7.956;2023-02-21T08:10:35;102839.31;;;10.24;100.00
64298;BME280;50639;53.270;7.956;2023-02-21T08:13:01;102902.50;;;10.28;100.00
64298;BME280;50639;53.270;7.956;2023-02-21T08:15:26;102965.66;;;10.32;100.00
64298;BME280;50639;53.270;7.956;2023-02-21T08:17:52;102970.19;;;10.31;100.00
64298;BME280;50639;53.270;7.956;2023-02-21T08:20:17;103051.34;;;10.35;100.00
64298;BME280;50639;53.270;7.956;2023-02-21T08:22:43;103283.66;;;10.42;100.00
64298;BME280;50639;53.270;7.956;2023-02-21T08:25:13;103241.59;;;10.33;100.00
64298;BME280;50639;53.270;7.956;2023-02-21T08:27:40;103361.63;;;10.34;100.00
64298;BME280;50639;53.270;7.956;2023-02-21T08:30:07;103405.50;;;10.34;100.00
64298;BME280;50639;53.270;7.956;2023-02-21T08:32:34;103315.91;;;10.34;100.00
64298;BME280;50639;53.270;7.956;2023-02-21T08:35:00;103316.25;;;10.39;100.00
64298;BME280;50639;53.270;7.956;2023-02-21T08:37:28;103341.66;;;10.44;100.00
64298;BME280;50639;53.270;7.956;2023-02-21T08:39:57;103337.09;;;10.45;100.00
64298;BME280;50639;53.270;7.956;2023-02-21T08:42:23;103321.97;;;10.36;100.00
64298;BME280;50639;53.270;7.956;2023-02-21T08:44:49;103469.75;;;10.45;100.00
64298;BME280;50639;53.270;7.956;2023-02-21T08:47:15;103518.84;;;10.47;100.00
64298;BME280;50639;53.270;7.956;2023-02-21T08:49:47;103477.63;;;10.39;100.00
64298;BME280;50639;53.270;7.956;2023-02-21T08:52:15;103551.31;;;10.46;100.00
64298;BME280;50639;53.270;7.956;2023-02-21T08:54:42;103588.84;;;10.55;100.00
64298;BME280;50639;53.270;7.956;2023-02-21T08:57:07;103505.94;;;10.59;100.00
64298;BME280;50639;53.270;7.956;2023-02-21T08:59:33;103459.03;;;10.61;100.00
64298;BME280;50639;53.270;7.956;2023-02-21T09:01:59;103581.19;;;10.68;100.00
64298;BME280;50639;53.270;7.956;2023-02-21T09:04:25;103698.16;;;10.82;100.00
64298;BME280;50639;53.270;7.956;2023-02-21T09:06:54;103698.84;;;10.84;100.00
64298;BME280;50639;53.270;7.956;2023-02-21T09:09:20;103726.75;;;10.83;100.00
64298;BME280;50639;53.270;7.956;2023-02-21T09:11:46;103926.69;;;10.93;100.00
64298;BME280;50639;53.270;7.956;2023-02-21T09:14:14;103958.03;;;10.94;100.00
64298;BME280;50639;53.270;7.956;2023-02-21T09:16:40;104025.50;;;10.93;100.00
64298;BME280;50639;53.270;7.956;2023-02-21T09:19:07;104163.78;;;11.01;100.00
64298;BME280;50639;53.270;7.956;2023-02-21T09:21:33;104239.16;;;11.01;100.00
64298;BME280;50639;53.270;7.956;2023-02-21T09:23:59;104268.22;;;11.07;100.00
64298;BME280;50639;53.270;7.956;2023-02-21T09:26:27;104310.00;;;11.11;100.00
64298;BME280;50639;53.270;7.956;2023-02-21T09:28:56;104353.97;;;11.02;100.00
64298;BME280;50639;53.270;7.956;2023-02-21T09:31:22;104461.97;;;10.99;100.00
64298;BME280;50639;53.270;7.956;2023-02-21T09:33:47;104619.16;;;11.08;100.00
64298;BME280;50639;53.270;7.956;2023-02-21T09:36:13;104525.03;;;11.06;100.00
64298;BME280;50639;53.270;7.956;2023-02-21T09:38:41;104696.44;;;11.07;100.00
64298;BME280;50639;53.270;7.956;2023-02-21T09:41:10;104770.88;;;11.08;100.00
64298;BME280;50639;53.270;7.956;2023-02-21T09:43:38;104836.72;;;11.15;100.00
64298;BME280;50639;53.270;7.956;2023-02-21T09:46:21;104877.66;;;11.09;100.00
64298;BME280;50639;53.270;7.956;2023-02-21T09:48:52;104982.06;;;11.17;100.00
64298;BME280;50639;53.270;7.956;2023-02-21T09:51:17;105028.72;;;11.17;100.00
64298;BME280;50639;53.270;7.956;2023-02-21T09:53:46;104977.97;;;11.22;100.00
64298;BME280;50639;53.270;7.956;2023-02-21T09:56:37;105157.03;;;11.29;100.00
64298;BME280;50639;53.270;7.956;2023-02-21T09:59:09;105098.63;;;11.19;100.00
64298;BME280;50639;53.270;7.956;2023-02-21T10:07:13;105424.44;;;11.33;100.00
64298;BME280;50639;53.270;7.956;2023-02-21T10:09:44;105617.44;;;11.46;100.00
64298;BME280;50639;53.270;7.956;2023-02-21T10:12:27;105541.22;;;11.44;100.00
64298;BME280;50639;53.270;7.956;2023-02-21T10:20:47;105473.34;;;11.61;100.00
64298;BME280;50639;53.270;7.956;2023-02-21T10:23:21;105464.53;;;11.59;100.00
64298;BME280;50639;53.270;7.956;2023-02-21T10:25:48;105342.94;;;11.40;100.00
64298;BME280;50639;53.270;7.956;2023-02-21T10:28:22;105144.28;;;11.20;100.00
64298;BME280;50639;53.270;7.956;2023-02-21T10:30:52;105305.22;;;11.18;100.00
64298;BME280;50639;53.270;7.956;2023-02-21T10:33:19;105057.34;;;11.18;100.00
64298;BME280;50639;53.270;7.956;2023-02-21T10:35:44;104926.19;;;11.19;100.00
64298;BME280;50639;53.270;7.956;2023-02-21T10:38:16;104912.34;;;11.23;100.00
64298;BME280;50639;53.270;7.956;2023-02-21T10:43:29;104685.28;;;11.21;100.00
64298;BME280;50639;53.270;7.956;2023-02-21T10:46:04;104536.09;;;11.22;100.00
64298;BME280;50639;53.270;7.956;2023-02-21T10:48:37;104560.91;;;11.16;100.00
64298;BME280;50639;53.270;7.956;2023-02-21T10:51:11;104703.47;;;11.29;100.00
64298;BME280;50639;53.270;7.956;2023-02-21T11:01:15;104739.50;;;11.37;100.00
64298;BME280;50639;53.270;7.956;2023-02-21T11:03:44;104834.84;;;11.46;100.00
64298;BME280;50639;53.270;7.956;2023-02-21T11:06:21;104936.31;;;11.56;100.00
64298;BME280;50639;53.270;7.956;2023-02-21T11:08:48;104778.28;;;11.55;100.00
64298;BME280;50639;53.270;7.956;2023-02-21T11:11:13;104811.44;;;11.46;100.00
64298;BME280;50639;53.270;7.956;2023-02-21T11:13:50;104972.91;;;11.49;100.00
64298;BME280;50639;53.270;7.956;2023-02-21T11:16:38;105082.28;;;11.52;100.00
64298;BME280;50639;53.270;7.956;2023-02-21T11:19:15;105042.19;;;11.58;100.00
64298;BME280;50639;53.270;7.956;2023-02-21T11:21:56;104967.56;;;11.59;100.00
64298;BME280;50639;53.270;7.956;2023-02-21T11:24:43;104734.84;;;11.49;100.00
64298;BME280;50639;53.270;7.956;2023-02-21T11:27:12;104990.25;;;11.56;100.00
64298;BME280;50639;53.270;7.956;2023-02-21T11:33:26;105128.81;;;11.65;100.00
64298;BME280;50639;53.270;7.956;2023-02-21T11:36:16;105241.19;;;11.76;100.00
64298;BME280;50639;53.270;7.956;2023-02-21T11:39:35;105246.53;;;11.87;100.00
64298;BME280;50639;53.270;7.956;2023-02-21T11:42:29;105302.16;;;11.99;100.00
64298;BME280;50639;53.270;7.956;2023-02-21T11:49:10;105509.44;;;11.94;100.00
64298;BME280;50639;53.270;7.956;2023-02-21T11:51:48;105596.50;;;11.96;100.00
64298;BME280;50639;53.270;7.956;2023-02-21T12:01:06;105298.19;;;12.14;100.00
64298;BME280;50639;53.270;7.956;2023-02-21T12:04:09;105037.47;;;11.92;100.00
64298;BME280;50639;53.270;7.956;2023-02-21T12:12:49;105197.59;;;11.91;100.00
64298;BME280;50639;53.270;7.956;2023-02-21T12:16:13;105241.09;;;11.98;100.00
64298;BME280;50639;53.270;7.956;2023-02-21T12:22:46;105082.78;;;11.98;100.00
64298;BME280;50639;53.270;7.956;2023-02-21T12:25:17;105092.97;;;11.95;100.00
64298;BME280;50639;53.270;7.956;2023-02-21T12:34:14;105220.38;;;12.19;100.00
64298;BME280;50639;53.270;7.956;2023-02-21T12:37:01;105429.41;;;12.26;100.00
64298;BME280;50639;53.270;7.956;2023-02-21T12:45:42;105432.34;;;12.23;100.00
64298;BME280;50639;53.270;7.956;2023-02-21T12:51:12;105195.09;;;12.20;100.00
64298;BME280;50639;53.270;7.956;2023-02-21T12:53:47;105006.16;;;12.10;100.00
64298;BME280;50639;53.270;7.956;2023-02-21T12:56:26;105100.78;;;12.18;100.00
64298;BME280;50639;53.270;7.956;2023-02-21T12:59:23;105254.44;;;12.31;100.00
64298;BME280;50639;53.270;7.956;2023-02-21T13:02:13;105178.84;;;12.31;100.00
64298;BME280;50639;53.270;7.956;2023-02-21T13:05:01;105094.00;;;12.24;100.00
64298;BME280;50639;53.270;7.956;2023-02-21T13:07:52;105024.94;;;12.21;100.00
64298;BME280;50639;53.270;7.956;2023-02-21T13:10:47;105052.94;;;12.20;100.00
64298;BME280;50639;53.270;7.956;2023-02-21T13:13:26;104959.03;;;12.14;100.00
64298;BME280;50639;53.270;7.956;2023-02-21T13:15:53;104921.38;;;12.13;100.00
64298;BME280;50639;53.270;7.956;2023-02-21T13:18:34;104821.28;;;12.06;100.00
64298;BME280;50639;53.270;7.956;2023-02-21T13:23:58;104924.94;;;12.23;100.00
64298;BME280;50639;53.270;7.956;2023-02-21T13:33:24;104855.94;;;12.30;100.00
64298;BME280;50639;53.270;7.956;2023-02-21T13:35:53;104843.84;;;12.34;100.00
64298;BME280;50639;53.270;7.956;2023-02-21T13:38:21;104803.94;;;12.37;100.00
64298;BME280;50639;53.270;7.956;2023-02-21T13:41:12;104778.81;;;12.37;100.00
64298;BME280;50639;53.270;7.956;2023-02-21T13:43:49;104913.78;;;12.46;100.00
64298;BME280;50639;53.270;7.956;2023-02-21T13:52:34;104476.19;;;12.40;100.00
64298;BME280;50639;53.270;7.956;2023-02-21T14:08:59;104380.50;;;12.34;100.00
64298;BME280;50639;53.270;7.956;2023-02-21T14:11:52;104485.84;;;12.42;100.00
64298;BME280;50639;53.270;7.956;2023-02-21T14:14:38;104389.53;;;12.43;100.00
64298;BME280;50639;53.270;7.956;2023-02-21T14:17:11;104480.00;;;12.47;100.00
64298;BME280;50639;53.270;7.956;2023-02-21T14:19:43;104429.69;;;12.46;100.00
64298;BME280;50639;53.270;7.956;2023-02-21T14:22:20;104550.41;;;12.53;100.00
64298;BME280;50639;53.270;7.956;2023-02-21T14:25:07;104384.50;;;12.48;100.00
64298;BME280;50639;53.270;7.956;2023-02-21T14:27:40;104481.06;;;12.54;100.00
64298;BME280;50639;53.270;7.956;2023-02-21T14:32:40;104514.88;;;12.58;100.00
64298;BME280;50639;53.270;7.956;2023-02-21T14:35:31;104374.78;;;12.55;100.00
64298;BME280;50639;53.270;7.956;2023-02-21T14:38:04;104266.41;;;12.50;100.00
64298;BME280;50639;53.270;7.956;2023-02-21T14:41:08;104496.81;;;12.58;100.00
64298;BME280;50639;53.270;7.956;2023-02-21T14:59:26;104404.00;;;12.59;100.00
64298;BME280;50639;53.270;7.956;2023-02-21T15:04:41;104410.59;;;12.57;100.00
64298;BME280;50639;53.270;7.956;2023-02-21T15:10:28;104229.25;;;12.44;100.00
64298;BME280;50639;53.270;7.956;2023-02-21T15:16:15;104226.56;;;12.44;100.00
64298;BME280;50639;53.270;7.956;2023-02-21T15:19:38;104230.97;;;12.45;100.00
64298;BME280;50639;53.270;7.956;2023-02-21T15:22:19;104177.69;;;12.47;100.00
64298;BME280;50639;53.270;7.956;2023-02-21T15:25:14;104008.09;;;12.42;100.00
64298;BME280;50639;53.270;7.956;2023-02-21T15:27:58;103924.44;;;12.42;100.00
64298;BME280;50639;53.270;7.956;2023-02-21T15:30:53;103866.06;;;12.41;100.00
64298;BME280;50639;53.270;7.956;2023-02-21T15:34:10;103708.19;;;12.37;100.00
64298;BME280;50639;53.270;7.956;2023-02-21T15:36:56;103519.34;;;12.29;100.00
64298;BME280;50639;53.270;7.956;2023-02-21T15:39:42;103619.50;;;12.34;100.00
64298;BME280;50639;53.270;7.956;2023-02-21T15:42:31;103523.56;;;12.32;100.00
64298;BME280;50639;53.270;7.956;2023-02-21T15:48:01;103249.81;;;12.20;100.00